EZY84MF EGKK-EGJJ
Flight info
| Callsign | EZY84MF |
|---|---|
| Flight time | 0h 40m |
| Altitude | 20000 |
| Route | IMVUR N63 LELNA |
| Aircraft | A320/M-SDE3FGHIRWY/LB1 |
Departure
| Time | 2026-05-05 18:43 |
|---|---|
| Airport | London Gatwick Airport (EGKK) |
Arrival
| Time | 2026-05-05 19:23 |
|---|---|
| Airport | Jersey Airport (EGJJ) |
| Time | Latitude | Longitude | Altitude | Speed | Heading |
|---|---|---|---|---|---|
| 2026-05-05 18:15 | 51.15891 | -0.17318 | 206 ft | 0 kts | 348° |
| 2026-05-05 18:26 | 51.15878 | -0.17313 | 218 ft | 3 kts | 330° |
| 2026-05-05 18:26 | 51.15865 | -0.17297 | 213 ft | 2 kts | 317° |
| 2026-05-05 18:26 | 51.15852 | -0.17278 | 217 ft | 2 kts | 317° |
| 2026-05-05 18:26 | 51.15840 | -0.17259 | 216 ft | 2 kts | 317° |
| 2026-05-05 18:27 | 51.15827 | -0.17240 | 216 ft | 2 kts | 303° |
| 2026-05-05 18:27 | 51.15818 | -0.17217 | 217 ft | 3 kts | 298° |
| 2026-05-05 18:27 | 51.15812 | -0.17190 | 215 ft | 3 kts | 261° |
| 2026-05-05 18:27 | 51.15813 | -0.17181 | 214 ft | 0 kts | 253° |
| 2026-05-05 18:29 | 51.15810 | -0.17194 | 216 ft | 5 kts | 250° |
| 2026-05-05 18:29 | 51.15798 | -0.17253 | 206 ft | 6 kts | 253° |
| 2026-05-05 18:30 | 51.15789 | -0.17313 | 207 ft | 5 kts | 257° |
| 2026-05-05 18:30 | 51.15775 | -0.17403 | 216 ft | 11 kts | 257° |
| 2026-05-05 18:30 | 51.15754 | -0.17558 | 208 ft | 17 kts | 258° |
| 2026-05-05 18:30 | 51.15729 | -0.17736 | 210 ft | 16 kts | 257° |
| 2026-05-05 18:31 | 51.15707 | -0.17895 | 206 ft | 14 kts | 258° |
| 2026-05-05 18:31 | 51.15687 | -0.18041 | 210 ft | 15 kts | 258° |
| 2026-05-05 18:31 | 51.15665 | -0.18202 | 210 ft | 14 kts | 258° |
| 2026-05-05 18:31 | 51.15639 | -0.18338 | 207 ft | 11 kts | 227° |
| 2026-05-05 18:32 | 51.15571 | -0.18340 | 210 ft | 11 kts | 163° |
| 2026-05-05 18:32 | 51.15478 | -0.18307 | 210 ft | 16 kts | 168° |
| 2026-05-05 18:32 | 51.15365 | -0.18268 | 214 ft | 17 kts | 168° |
| 2026-05-05 18:32 | 51.15244 | -0.18227 | 213 ft | 18 kts | 168° |
| 2026-05-05 18:33 | 51.15181 | -0.18333 | 209 ft | 14 kts | 263° |
| 2026-05-05 18:33 | 51.15158 | -0.18522 | 215 ft | 22 kts | 256° |
| 2026-05-05 18:33 | 51.15122 | -0.18781 | 210 ft | 25 kts | 259° |
| 2026-05-05 18:33 | 51.15085 | -0.19047 | 217 ft | 25 kts | 257° |
| 2026-05-05 18:34 | 51.15033 | -0.19261 | 209 ft | 16 kts | 185° |
| 2026-05-05 18:34 | 51.14959 | -0.19316 | 210 ft | 11 kts | 246° |
| 2026-05-05 18:34 | 51.14941 | -0.19440 | 217 ft | 12 kts | 258° |
| 2026-05-05 18:34 | 51.14920 | -0.19592 | 209 ft | 18 kts | 257° |
| 2026-05-05 18:35 | 51.14895 | -0.19774 | 218 ft | 16 kts | 256° |
| 2026-05-05 18:35 | 51.14866 | -0.19975 | 212 ft | 23 kts | 257° |
| 2026-05-05 18:35 | 51.14831 | -0.20224 | 208 ft | 24 kts | 258° |
| 2026-05-05 18:35 | 51.14792 | -0.20507 | 210 ft | 26 kts | 256° |
| 2026-05-05 18:36 | 51.14750 | -0.20798 | 214 ft | 27 kts | 259° |
| 2026-05-05 18:36 | 51.14712 | -0.21093 | 214 ft | 25 kts | 258° |
| 2026-05-05 18:36 | 51.14681 | -0.21293 | 215 ft | 15 kts | 242° |
| 2026-05-05 18:36 | 51.14624 | -0.21328 | 206 ft | 6 kts | 168° |
| 2026-05-05 18:37 | 51.14617 | -0.21326 | 206 ft | 0 kts | 168° |
| 2026-05-05 18:40 | 51.14616 | -0.21326 | 206 ft | 3 kts | 168° |
| 2026-05-05 18:40 | 51.14587 | -0.21315 | 210 ft | 6 kts | 165° |
| 2026-05-05 18:40 | 51.14543 | -0.21274 | 211 ft | 8 kts | 137° |
| 2026-05-05 18:41 | 51.14520 | -0.21210 | 211 ft | 6 kts | 104° |
| 2026-05-05 18:41 | 51.14521 | -0.21156 | 206 ft | 4 kts | 77° |
| 2026-05-05 18:41 | 51.14522 | -0.21146 | 206 ft | 0 kts | 77° |
| 2026-05-05 18:42 | 51.14532 | -0.21074 | 209 ft | 31 kts | 77° |
| 2026-05-05 18:42 | 51.14636 | -0.20327 | 209 ft | 103 kts | 77° |
| 2026-05-05 18:42 | 51.14825 | -0.18950 | 296 ft | 145 kts | 78° |
| 2026-05-05 18:43 | 51.15046 | -0.17339 | 831 ft | 147 kts | 78° |
| 2026-05-05 18:43 | 51.15259 | -0.15788 | 1499 ft | 142 kts | 77° |
| 2026-05-05 18:43 | 51.15479 | -0.14182 | 1913 ft | 155 kts | 76° |
| 2026-05-05 18:43 | 51.15720 | -0.12438 | 2298 ft | 169 kts | 76° |
| 2026-05-05 18:44 | 51.15983 | -0.10549 | 2615 ft | 185 kts | 75° |
| 2026-05-05 18:44 | 51.16277 | -0.08438 | 2934 ft | 201 kts | 75° |
| 2026-05-05 18:44 | 51.16725 | -0.06202 | 2985 ft | 220 kts | 54° |
| 2026-05-05 18:44 | 51.17891 | -0.04782 | 3009 ft | 218 kts | 14° |
| 2026-05-05 18:45 | 51.19409 | -0.04785 | 3004 ft | 220 kts | 351° |
| 2026-05-05 18:45 | 51.20903 | -0.05306 | 3008 ft | 221 kts | 345° |
| 2026-05-05 18:45 | 51.22213 | -0.06540 | 3009 ft | 224 kts | 310° |
| 2026-05-05 18:45 | 51.22825 | -0.08890 | 3015 ft | 252 kts | 274° |
| 2026-05-05 18:46 | 51.22634 | -0.11775 | 3605 ft | 266 kts | 262° |
| 2026-05-05 18:46 | 51.22302 | -0.14690 | 4484 ft | 269 kts | 262° |
| 2026-05-05 18:46 | 51.21944 | -0.17628 | 5381 ft | 270 kts | 261° |
| 2026-05-05 18:46 | 51.21585 | -0.20547 | 6231 ft | 273 kts | 261° |
| 2026-05-05 18:47 | 51.21217 | -0.23566 | 7041 ft | 276 kts | 261° |
| 2026-05-05 18:47 | 51.20854 | -0.26561 | 7820 ft | 279 kts | 261° |
| 2026-05-05 18:47 | 51.20486 | -0.29630 | 8583 ft | 284 kts | 261° |
| 2026-05-05 18:47 | 51.20120 | -0.32725 | 8871 ft | 285 kts | 261° |
| 2026-05-05 18:48 | 51.19750 | -0.35843 | 8938 ft | 285 kts | 260° |
| 2026-05-05 18:48 | 51.19356 | -0.38944 | 8942 ft | 285 kts | 260° |
| 2026-05-05 18:48 | 51.18950 | -0.42041 | 8942 ft | 285 kts | 259° |
| 2026-05-05 18:48 | 51.18499 | -0.45121 | 8941 ft | 286 kts | 251° |
| 2026-05-05 18:49 | 51.17446 | -0.47801 | 8942 ft | 289 kts | 224° |
| 2026-05-05 18:49 | 51.15817 | -0.49683 | 8952 ft | 291 kts | 212° |
| 2026-05-05 18:49 | 51.14070 | -0.51342 | 8939 ft | 291 kts | 211° |
| 2026-05-05 18:49 | 51.12349 | -0.52935 | 8941 ft | 291 kts | 211° |
| 2026-05-05 18:50 | 51.10599 | -0.54550 | 9127 ft | 290 kts | 211° |
| 2026-05-05 18:50 | 51.08840 | -0.56173 | 9846 ft | 294 kts | 211° |
| 2026-05-05 18:50 | 51.07147 | -0.58058 | 10376 ft | 304 kts | 227° |
| 2026-05-05 18:50 | 51.05878 | -0.60836 | 10773 ft | 318 kts | 240° |
| 2026-05-05 18:51 | 51.04726 | -0.63934 | 11116 ft | 334 kts | 241° |
| 2026-05-05 18:51 | 51.03540 | -0.67202 | 11487 ft | 348 kts | 241° |
| 2026-05-05 18:51 | 51.02324 | -0.70570 | 12100 ft | 354 kts | 241° |
| 2026-05-05 18:51 | 51.01094 | -0.73985 | 12788 ft | 358 kts | 241° |
| 2026-05-05 18:52 | 50.99855 | -0.77441 | 13455 ft | 361 kts | 241° |
| 2026-05-05 18:52 | 50.98610 | -0.80932 | 14065 ft | 365 kts | 241° |
| 2026-05-05 18:52 | 50.97353 | -0.84462 | 14650 ft | 369 kts | 241° |
| 2026-05-05 18:52 | 50.96090 | -0.88001 | 14878 ft | 370 kts | 241° |
| 2026-05-05 18:53 | 50.94663 | -0.91397 | 15088 ft | 370 kts | 227° |
| 2026-05-05 18:53 | 50.92725 | -0.94104 | 15643 ft | 374 kts | 219° |
| 2026-05-05 18:53 | 50.90704 | -0.96678 | 16213 ft | 378 kts | 219° |
| 2026-05-05 18:53 | 50.88647 | -0.99290 | 16791 ft | 381 kts | 219° |
| 2026-05-05 18:54 | 50.86565 | -1.01920 | 17368 ft | 384 kts | 219° |
| 2026-05-05 18:54 | 50.84466 | -1.04561 | 17938 ft | 387 kts | 219° |
| 2026-05-05 18:54 | 50.82345 | -1.07232 | 18465 ft | 391 kts | 219° |
| 2026-05-05 18:54 | 50.80212 | -1.09921 | 18972 ft | 393 kts | 219° |
| 2026-05-05 18:55 | 50.78063 | -1.12629 | 19499 ft | 395 kts | 219° |
| 2026-05-05 18:55 | 50.75902 | -1.15345 | 19850 ft | 396 kts | 219° |
| 2026-05-05 18:55 | 50.73736 | -1.18061 | 19934 ft | 403 kts | 219° |
| 2026-05-05 18:55 | 50.71508 | -1.20851 | 19939 ft | 405 kts | 219° |
| 2026-05-05 18:56 | 50.69347 | -1.23546 | 19936 ft | 405 kts | 219° |
| 2026-05-05 18:56 | 50.67135 | -1.26298 | 19935 ft | 405 kts | 219° |
| 2026-05-05 18:56 | 50.64922 | -1.29054 | 19940 ft | 405 kts | 219° |
| 2026-05-05 18:56 | 50.62713 | -1.31805 | 19933 ft | 405 kts | 219° |
| 2026-05-05 18:57 | 50.60507 | -1.34552 | 19930 ft | 405 kts | 219° |
| 2026-05-05 18:57 | 50.58297 | -1.37305 | 19935 ft | 406 kts | 219° |
| 2026-05-05 18:57 | 50.56074 | -1.40072 | 19936 ft | 406 kts | 219° |
| 2026-05-05 18:57 | 50.53861 | -1.42819 | 19937 ft | 406 kts | 219° |
| 2026-05-05 18:58 | 50.51636 | -1.45572 | 19936 ft | 406 kts | 218° |
| 2026-05-05 18:58 | 50.49414 | -1.48315 | 19937 ft | 406 kts | 218° |
| 2026-05-05 18:58 | 50.47193 | -1.51055 | 19938 ft | 406 kts | 218° |
| 2026-05-05 18:58 | 50.44961 | -1.53802 | 19938 ft | 406 kts | 218° |
| 2026-05-05 18:59 | 50.42738 | -1.56538 | 19937 ft | 406 kts | 218° |
| 2026-05-05 18:59 | 50.40513 | -1.59273 | 19933 ft | 406 kts | 218° |
| 2026-05-05 18:59 | 50.38285 | -1.62006 | 19932 ft | 407 kts | 218° |
| 2026-05-05 18:59 | 50.36055 | -1.64744 | 19930 ft | 407 kts | 218° |
| 2026-05-05 19:00 | 50.33857 | -1.67444 | 19930 ft | 407 kts | 218° |
| 2026-05-05 19:00 | 50.31629 | -1.70173 | 19922 ft | 407 kts | 218° |
| 2026-05-05 19:00 | 50.29395 | -1.72904 | 19923 ft | 407 kts | 218° |
| 2026-05-05 19:00 | 50.27156 | -1.75635 | 19930 ft | 408 kts | 218° |
| 2026-05-05 19:01 | 50.24923 | -1.78356 | 19934 ft | 408 kts | 218° |
| 2026-05-05 19:01 | 50.22682 | -1.81088 | 19944 ft | 408 kts | 218° |
| 2026-05-05 19:01 | 50.20443 | -1.83817 | 19944 ft | 408 kts | 218° |
| 2026-05-05 19:01 | 50.18205 | -1.86543 | 19946 ft | 408 kts | 218° |
| 2026-05-05 19:02 | 50.15963 | -1.89268 | 19949 ft | 408 kts | 218° |
| 2026-05-05 19:02 | 50.13745 | -1.91957 | 19747 ft | 398 kts | 218° |
| 2026-05-05 19:02 | 50.11580 | -1.94575 | 19503 ft | 388 kts | 218° |
| 2026-05-05 19:02 | 50.09476 | -1.97117 | 19262 ft | 381 kts | 218° |
| 2026-05-05 19:03 | 50.07385 | -1.99641 | 19014 ft | 380 kts | 218° |
| 2026-05-05 19:03 | 50.05292 | -2.02162 | 18775 ft | 379 kts | 218° |
| 2026-05-05 19:03 | 50.03208 | -2.04673 | 18540 ft | 378 kts | 218° |
| 2026-05-05 19:03 | 50.01168 | -2.07129 | 18237 ft | 373 kts | 218° |
| 2026-05-05 19:04 | 49.99046 | -2.09421 | 17756 ft | 370 kts | 209° |
| 2026-05-05 19:04 | 49.96706 | -2.11055 | 17281 ft | 366 kts | 198° |
| 2026-05-05 19:04 | 49.94251 | -2.12017 | 16823 ft | 363 kts | 191° |
| 2026-05-05 19:04 | 49.91789 | -2.12844 | 16367 ft | 360 kts | 192° |
| 2026-05-05 19:05 | 49.90175 | -2.13392 | 16071 ft | 359 kts | 192° |
| 2026-05-05 19:05 | 49.87704 | -2.14238 | 15619 ft | 357 kts | 192° |
| 2026-05-05 19:05 | 49.85313 | -2.15060 | 15178 ft | 355 kts | 192° |
| 2026-05-05 19:05 | 49.82900 | -2.15888 | 14733 ft | 354 kts | 192° |
| 2026-05-05 19:06 | 49.80496 | -2.16712 | 14292 ft | 352 kts | 192° |
| 2026-05-05 19:06 | 49.78105 | -2.17525 | 13842 ft | 351 kts | 192° |
| 2026-05-05 19:06 | 49.75715 | -2.18336 | 13354 ft | 350 kts | 192° |
| 2026-05-05 19:06 | 49.73376 | -2.19130 | 12911 ft | 347 kts | 192° |
| 2026-05-05 19:07 | 49.71018 | -2.19929 | 12459 ft | 345 kts | 193° |
| 2026-05-05 19:07 | 49.68705 | -2.20816 | 11993 ft | 342 kts | 195° |
| 2026-05-05 19:07 | 49.66412 | -2.21817 | 11522 ft | 340 kts | 197° |
| 2026-05-05 19:07 | 49.64148 | -2.22866 | 11046 ft | 339 kts | 197° |
| 2026-05-05 19:08 | 49.61892 | -2.23925 | 10575 ft | 337 kts | 197° |
| 2026-05-05 19:08 | 49.59660 | -2.24960 | 10233 ft | 331 kts | 197° |
| 2026-05-05 19:08 | 49.57486 | -2.25950 | 10109 ft | 319 kts | 197° |
| 2026-05-05 19:08 | 49.55392 | -2.26886 | 9991 ft | 307 kts | 197° |
| 2026-05-05 19:09 | 49.53383 | -2.27775 | 9670 ft | 303 kts | 196° |
| 2026-05-05 19:09 | 49.51360 | -2.28667 | 9257 ft | 301 kts | 196° |
| 2026-05-05 19:09 | 49.49343 | -2.29559 | 8737 ft | 303 kts | 196° |
| 2026-05-05 19:09 | 49.47306 | -2.30459 | 8230 ft | 304 kts | 196° |
| 2026-05-05 19:10 | 49.45268 | -2.31361 | 7729 ft | 305 kts | 196° |
| 2026-05-05 19:10 | 49.43225 | -2.32265 | 7230 ft | 306 kts | 196° |
| 2026-05-05 19:10 | 49.41176 | -2.33170 | 6728 ft | 307 kts | 196° |
| 2026-05-05 19:10 | 49.39127 | -2.34074 | 6215 ft | 307 kts | 196° |
| 2026-05-05 19:11 | 49.37065 | -2.34983 | 5693 ft | 307 kts | 195° |
| 2026-05-05 19:11 | 49.35007 | -2.35887 | 5184 ft | 305 kts | 195° |
| 2026-05-05 19:11 | 49.32989 | -2.36775 | 4808 ft | 295 kts | 195° |
| 2026-05-05 19:11 | 49.31119 | -2.37718 | 4686 ft | 277 kts | 208° |
| 2026-05-05 19:12 | 49.29659 | -2.39498 | 4556 ft | 257 kts | 233° |
| 2026-05-05 19:12 | 49.28723 | -2.41690 | 4332 ft | 244 kts | 244° |
| 2026-05-05 19:12 | 49.27934 | -2.43933 | 4103 ft | 235 kts | 246° |
| 2026-05-05 19:12 | 49.27487 | -2.46280 | 4012 ft | 227 kts | 276° |
| 2026-05-05 19:13 | 49.27920 | -2.48509 | 4020 ft | 216 kts | 310° |
| 2026-05-05 19:13 | 49.29047 | -2.49890 | 4025 ft | 207 kts | 345° |
| 2026-05-05 19:13 | 49.30456 | -2.49997 | 4032 ft | 204 kts | 15° |
| 2026-05-05 19:13 | 49.31708 | -2.49079 | 4020 ft | 205 kts | 43° |
| 2026-05-05 19:14 | 49.32421 | -2.47163 | 4031 ft | 211 kts | 73° |
| 2026-05-05 19:14 | 49.32658 | -2.44934 | 4038 ft | 223 kts | 80° |
| 2026-05-05 19:14 | 49.32841 | -2.42424 | 4022 ft | 251 kts | 81° |
| 2026-05-05 19:14 | 49.33026 | -2.39745 | 4026 ft | 253 kts | 81° |
| 2026-05-05 19:15 | 49.33203 | -2.37055 | 4007 ft | 253 kts | 81° |
| 2026-05-05 19:15 | 49.33380 | -2.34365 | 4010 ft | 253 kts | 81° |
| 2026-05-05 19:15 | 49.33555 | -2.31678 | 4008 ft | 253 kts | 81° |
| 2026-05-05 19:15 | 49.33730 | -2.28999 | 4007 ft | 253 kts | 81° |
| 2026-05-05 19:16 | 49.33901 | -2.26309 | 4006 ft | 253 kts | 83° |
| 2026-05-05 19:16 | 49.33876 | -2.23600 | 4009 ft | 255 kts | 90° |
| 2026-05-05 19:16 | 49.33748 | -2.20874 | 4006 ft | 255 kts | 90° |
| 2026-05-05 19:16 | 49.33609 | -2.18166 | 4008 ft | 256 kts | 91° |
| 2026-05-05 19:17 | 49.33471 | -2.15488 | 4007 ft | 255 kts | 91° |
| 2026-05-05 19:17 | 49.33329 | -2.12777 | 4008 ft | 255 kts | 91° |
| 2026-05-05 19:17 | 49.33186 | -2.10066 | 4006 ft | 255 kts | 91° |
| 2026-05-05 19:17 | 49.33040 | -2.07350 | 4008 ft | 255 kts | 91° |
| 2026-05-05 19:18 | 49.32839 | -2.04646 | 4001 ft | 257 kts | 101° |
| 2026-05-05 19:18 | 49.32077 | -2.02256 | 4005 ft | 245 kts | 126° |
| 2026-05-05 19:18 | 49.30789 | -2.00634 | 3899 ft | 240 kts | 150° |
| 2026-05-05 19:18 | 49.29226 | -1.99847 | 3735 ft | 232 kts | 162° |
| 2026-05-05 19:19 | 49.27701 | -1.99215 | 3695 ft | 224 kts | 162° |
| 2026-05-05 19:19 | 49.26233 | -1.98597 | 3515 ft | 214 kts | 161° |
| 2026-05-05 19:19 | 49.24784 | -1.98148 | 3214 ft | 213 kts | 180° |
| 2026-05-05 19:19 | 49.23419 | -1.98768 | 2945 ft | 205 kts | 215° |
| 2026-05-05 19:20 | 49.22506 | -2.00337 | 2680 ft | 188 kts | 248° |
| 2026-05-05 19:20 | 49.22222 | -2.02156 | 2385 ft | 169 kts | 270° |
| 2026-05-05 19:20 | 49.22089 | -2.03872 | 2116 ft | 157 kts | 269° |
| 2026-05-05 19:20 | 49.21956 | -2.05477 | 1890 ft | 150 kts | 269° |
| 2026-05-05 19:21 | 49.21826 | -2.07069 | 1768 ft | 151 kts | 268° |
| 2026-05-05 19:21 | 49.21696 | -2.08652 | 1596 ft | 150 kts | 268° |
| 2026-05-05 19:21 | 49.21567 | -2.10210 | 1407 ft | 147 kts | 268° |
| 2026-05-05 19:21 | 49.21440 | -2.11757 | 1203 ft | 145 kts | 268° |
| 2026-05-05 19:22 | 49.21313 | -2.13302 | 1005 ft | 148 kts | 268° |
| 2026-05-05 19:22 | 49.21175 | -2.14841 | 788 ft | 142 kts | 266° |
| 2026-05-05 19:22 | 49.21039 | -2.16292 | 590 ft | 133 kts | 268° |
| 2026-05-05 19:22 | 49.20950 | -2.17487 | 408 ft | 135 kts | 268° |
| 2026-05-05 19:23 | 49.20852 | -2.18909 | 287 ft | 125 kts | 270° |
| 2026-05-05 19:23 | 49.20784 | -2.19752 | 283 ft | 52 kts | 261° |
| 2026-05-05 19:23 | 49.20724 | -2.20087 | 281 ft | 19 kts | 214° |
| 2026-05-05 19:23 | 49.20635 | -2.20098 | 282 ft | 11 kts | 173° |
| 2026-05-05 19:24 | 49.20611 | -2.20094 | 281 ft | 1 kts | 174° |
| 2026-05-05 19:24 | 49.20549 | -2.20079 | 280 ft | 13 kts | 156° |
| 2026-05-05 19:24 | 49.20516 | -2.19971 | 280 ft | 10 kts | 104° |
| 2026-05-05 19:24 | 49.20470 | -2.19917 | 280 ft | 8 kts | 170° |
| 2026-05-05 19:25 | 49.20434 | -2.19854 | 280 ft | 9 kts | 93° |
| 2026-05-05 19:25 | 49.20441 | -2.19739 | 280 ft | 11 kts | 84° |
| 2026-05-05 19:25 | 49.20467 | -2.19679 | 280 ft | 3 kts | 354° |
| 2026-05-05 19:25 | 49.20497 | -2.19676 | 280 ft | 4 kts | 5° |
| 2026-05-05 19:26 | 49.20497 | -2.19675 | 280 ft | 0 kts | 5° |